Weather at Fougamou Airport

Public forecast

Using degrees Celsius for public forecast. Weather courtesy of forecast.io.

Closest aviation weather report (METAR) to Fougamou Airport

Report is more than 6 hours old.

Closest report is Lambarene Airport, 40.9 nm (75.7 km) NNW.

2022/11/14 15:00 (retrieved 2 years ago)

FOGR 141500Z /////KT 9999 SCT013TCU 33/25 Q////

Closest aviation forecast (TAF) to Fougamou Airport

Forecast is more than 12 hours old.

Closest forecast is Port Gentil Airport, 116.6 nm (216.0 km) WNW.

2023/02/22 18:19 (retrieved 1 year ago)

TAF FOOG 221700Z 2218/2318 10005KT 7000 -TSRA SCT009 FEW018CB BKN024 BECMG 2218/2220 NSW SCT010 BKN024 PROB30 TEMPO 2302/2306 4000 TSRA BKN008 FEW018CB OVC024 TEMPO 2312/2315 TS SCT015 FEW020CB TEMPO 2315/2318 4500 TSRA BKN010 FEW020CB BKN026